sensor_id;sensor_type;location;lat;lon;timestamp;temperature;humidity
4354;DHT22;11018;51.258;6.806;2023-08-31T00:01:40;14.00;61.30
4354;DHT22;11018;51.258;6.806;2023-08-31T00:04:06;14.10;60.20
4354;DHT22;11018;51.258;6.806;2023-08-31T00:06:40;14.10;59.30
4354;DHT22;11018;51.258;6.806;2023-08-31T00:09:06;14.00;60.30
4354;DHT22;11018;51.258;6.806;2023-08-31T00:11:37;14.00;60.50
4354;DHT22;11018;51.258;6.806;2023-08-31T00:14:04;13.90;61.80
4354;DHT22;11018;51.258;6.806;2023-08-31T00:16:30;14.00;60.30
4354;DHT22;11018;51.258;6.806;2023-08-31T00:18:56;14.00;60.80
4354;DHT22;11018;51.258;6.806;2023-08-31T00:21:22;14.00;61.50
4354;DHT22;11018;51.258;6.806;2023-08-31T00:23:48;13.90;62.90
4354;DHT22;11018;51.258;6.806;2023-08-31T00:26:14;13.90;62.80
4354;DHT22;11018;51.258;6.806;2023-08-31T00:28:42;13.90;63.10
4354;DHT22;11018;51.258;6.806;2023-08-31T00:31:09;13.80;64.40
4354;DHT22;11018;51.258;6.806;2023-08-31T00:33:37;13.70;65.50
4354;DHT22;11018;51.258;6.806;2023-08-31T00:36:02;13.90;63.10
4354;DHT22;11018;51.258;6.806;2023-08-31T00:38:29;13.90;62.60
4354;DHT22;11018;51.258;6.806;2023-08-31T00:40:55;13.80;62.90
4354;DHT22;11018;51.258;6.806;2023-08-31T00:43:20;13.80;63.50
4354;DHT22;11018;51.258;6.806;2023-08-31T00:45:48;13.70;63.50
4354;DHT22;11018;51.258;6.806;2023-08-31T00:48:16;13.60;65.90
4354;DHT22;11018;51.258;6.806;2023-08-31T00:50:45;13.50;67.00
4354;DHT22;11018;51.258;6.806;2023-08-31T00:53:11;13.50;68.60
4354;DHT22;11018;51.258;6.806;2023-08-31T00:55:37;13.50;68.30
4354;DHT22;11018;51.258;6.806;2023-08-31T00:58:05;13.40;68.90
4354;DHT22;11018;51.258;6.806;2023-08-31T01:01:11;13.20;72.20
4354;DHT22;11018;51.258;6.806;2023-08-31T01:09:36;13.30;71.30
4354;DHT22;11018;51.258;6.806;2023-08-31T01:12:10;13.10;73.70
4354;DHT22;11018;51.258;6.806;2023-08-31T01:14:46;13.00;74.80
4354;DHT22;11018;51.258;6.806;2023-08-31T01:17:14;13.10;73.70
4354;DHT22;11018;51.258;6.806;2023-08-31T01:22:25;12.90;75.70
4354;DHT22;11018;51.258;6.806;2023-08-31T01:24:53;12.80;77.70
4354;DHT22;11018;51.258;6.806;2023-08-31T01:27:19;12.80;78.80
4354;DHT22;11018;51.258;6.806;2023-08-31T01:29:45;12.80;78.30
4354;DHT22;11018;51.258;6.806;2023-08-31T01:32:11;12.90;77.10
4354;DHT22;11018;51.258;6.806;2023-08-31T01:34:36;12.90;75.80
4354;DHT22;11018;51.258;6.806;2023-08-31T01:37:16;12.90;74.90
4354;DHT22;11018;51.258;6.806;2023-08-31T01:40:12;13.00;73.00
4354;DHT22;11018;51.258;6.806;2023-08-31T01:42:42;13.00;74.10
4354;DHT22;11018;51.258;6.806;2023-08-31T01:45:08;12.90;74.00
4354;DHT22;11018;51.258;6.806;2023-08-31T01:47:36;12.80;74.90
4354;DHT22;11018;51.258;6.806;2023-08-31T01:50:01;12.80;75.30
4354;DHT22;11018;51.258;6.806;2023-08-31T01:52:27;12.80;75.10
4354;DHT22;11018;51.258;6.806;2023-08-31T01:54:53;12.80;73.10
4354;DHT22;11018;51.258;6.806;2023-08-31T01:57:18;12.90;71.90
4354;DHT22;11018;51.258;6.806;2023-08-31T01:59:44;12.90;72.30
4354;DHT22;11018;51.258;6.806;2023-08-31T02:02:09;12.80;74.00
4354;DHT22;11018;51.258;6.806;2023-08-31T02:04:35;12.80;73.00
4354;DHT22;11018;51.258;6.806;2023-08-31T02:07:00;12.80;73.00
4354;DHT22;11018;51.258;6.806;2023-08-31T02:09:26;12.70;73.70
4354;DHT22;11018;51.258;6.806;2023-08-31T02:11:52;12.60;74.80
4354;DHT22;11018;51.258;6.806;2023-08-31T02:14:18;12.70;73.50
4354;DHT22;11018;51.258;6.806;2023-08-31T02:16:43;12.70;73.30
4354;DHT22;11018;51.258;6.806;2023-08-31T02:19:09;12.60;73.70
4354;DHT22;11018;51.258;6.806;2023-08-31T02:21:35;12.60;74.30
4354;DHT22;11018;51.258;6.806;2023-08-31T02:24:00;12.60;75.00
4354;DHT22;11018;51.258;6.806;2023-08-31T02:26:26;12.50;77.00
4354;DHT22;11018;51.258;6.806;2023-08-31T02:28:51;12.40;78.30
4354;DHT22;11018;51.258;6.806;2023-08-31T02:31:17;12.40;78.40
4354;DHT22;11018;51.258;6.806;2023-08-31T02:33:45;12.40;79.30
4354;DHT22;11018;51.258;6.806;2023-08-31T02:36:11;12.30;81.90
4354;DHT22;11018;51.258;6.806;2023-08-31T02:38:36;12.30;82.00
4354;DHT22;11018;51.258;6.806;2023-08-31T02:41:02;12.30;81.30
4354;DHT22;11018;51.258;6.806;2023-08-31T02:43:27;12.40;80.70
4354;DHT22;11018;51.258;6.806;2023-08-31T02:46:01;12.30;81.10
4354;DHT22;11018;51.258;6.806;2023-08-31T02:48:26;12.30;80.80
4354;DHT22;11018;51.258;6.806;2023-08-31T02:50:53;12.30;80.60
4354;DHT22;11018;51.258;6.806;2023-08-31T02:53:19;12.30;81.40
4354;DHT22;11018;51.258;6.806;2023-08-31T02:55:45;12.40;80.40
4354;DHT22;11018;51.258;6.806;2023-08-31T02:58:10;12.30;81.20
4354;DHT22;11018;51.258;6.806;2023-08-31T03:00:36;12.30;82.80
4354;DHT22;11018;51.258;6.806;2023-08-31T03:03:05;12.30;82.20
4354;DHT22;11018;51.258;6.806;2023-08-31T03:05:30;12.20;83.80
4354;DHT22;11018;51.258;6.806;2023-08-31T03:07:56;12.30;83.30
4354;DHT22;11018;51.258;6.806;2023-08-31T03:10:22;12.30;81.00
4354;DHT22;11018;51.258;6.806;2023-08-31T03:12:48;12.20;82.30
4354;DHT22;11018;51.258;6.806;2023-08-31T03:15:13;12.10;84.00
4354;DHT22;11018;51.258;6.806;2023-08-31T03:17:39;12.20;84.10
4354;DHT22;11018;51.258;6.806;2023-08-31T03:20:05;12.20;83.50
4354;DHT22;11018;51.258;6.806;2023-08-31T03:22:31;12.30;81.40
4354;DHT22;11018;51.258;6.806;2023-08-31T03:24:57;12.30;82.30
4354;DHT22;11018;51.258;6.806;2023-08-31T03:27:22;12.20;82.10
4354;DHT22;11018;51.258;6.806;2023-08-31T03:29:48;12.00;84.70
4354;DHT22;11018;51.258;6.806;2023-08-31T03:32:14;12.10;83.70
4354;DHT22;11018;51.258;6.806;2023-08-31T03:34:39;12.00;86.20
4354;DHT22;11018;51.258;6.806;2023-08-31T03:37:05;11.90;88.10
4354;DHT22;11018;51.258;6.806;2023-08-31T03:39:30;11.90;89.90
4354;DHT22;11018;51.258;6.806;2023-08-31T03:41:56;11.80;90.00
4354;DHT22;11018;51.258;6.806;2023-08-31T03:44:22;11.90;89.60
4354;DHT22;11018;51.258;6.806;2023-08-31T03:46:48;11.90;89.20
4354;DHT22;11018;51.258;6.806;2023-08-31T03:49:13;11.90;89.70
4354;DHT22;11018;51.258;6.806;2023-08-31T03:51:39;11.90;89.40
4354;DHT22;11018;51.258;6.806;2023-08-31T03:54:05;12.00;89.40
4354;DHT22;11018;51.258;6.806;2023-08-31T03:56:30;12.10;87.50
4354;DHT22;11018;51.258;6.806;2023-08-31T03:58:57;12.00;88.60
4354;DHT22;11018;51.258;6.806;2023-08-31T04:01:22;12.00;89.50
4354;DHT22;11018;51.258;6.806;2023-08-31T04:03:48;12.10;87.80
4354;DHT22;11018;51.258;6.806;2023-08-31T04:06:14;12.10;87.30
4354;DHT22;11018;51.258;6.806;2023-08-31T04:08:40;12.30;85.20
4354;DHT22;11018;51.258;6.806;2023-08-31T04:11:05;12.20;84.60
4354;DHT22;11018;51.258;6.806;2023-08-31T04:13:31;12.10;86.70
4354;DHT22;11018;51.258;6.806;2023-08-31T04:15:56;12.10;88.20
4354;DHT22;11018;51.258;6.806;2023-08-31T04:18:22;12.10;88.10
4354;DHT22;11018;51.258;6.806;2023-08-31T04:20:53;12.00;89.90
4354;DHT22;11018;51.258;6.806;2023-08-31T04:23:20;12.00;90.30
4354;DHT22;11018;51.258;6.806;2023-08-31T04:25:47;11.90;91.30
4354;DHT22;11018;51.258;6.806;2023-08-31T04:28:13;11.80;92.70
4354;DHT22;11018;51.258;6.806;2023-08-31T04:30:40;11.70;96.30
4354;DHT22;11018;51.258;6.806;2023-08-31T04:33:06;11.70;96.20
4354;DHT22;11018;51.258;6.806;2023-08-31T04:35:32;11.80;96.10
4354;DHT22;11018;51.258;6.806;2023-08-31T04:37:58;11.90;95.60
4354;DHT22;11018;51.258;6.806;2023-08-31T04:40:24;11.90;94.80
4354;DHT22;11018;51.258;6.806;2023-08-31T04:42:50;11.90;95.30
4354;DHT22;11018;51.258;6.806;2023-08-31T04:45:16;12.00;93.90
4354;DHT22;11018;51.258;6.806;2023-08-31T04:47:42;12.10;93.20
4354;DHT22;11018;51.258;6.806;2023-08-31T04:50:08;12.00;93.50
4354;DHT22;11018;51.258;6.806;2023-08-31T04:52:33;12.00;95.50
4354;DHT22;11018;51.258;6.806;2023-08-31T04:55:01;12.10;95.60
4354;DHT22;11018;51.258;6.806;2023-08-31T04:57:26;12.30;91.50
4354;DHT22;11018;51.258;6.806;2023-08-31T04:59:53;12.40;89.50
4354;DHT22;11018;51.258;6.806;2023-08-31T05:02:19;12.60;84.10
4354;DHT22;11018;51.258;6.806;2023-08-31T05:04:45;12.60;84.10
4354;DHT22;11018;51.258;6.806;2023-08-31T05:07:10;12.70;83.50
4354;DHT22;11018;51.258;6.806;2023-08-31T05:09:36;12.80;83.00
4354;DHT22;11018;51.258;6.806;2023-08-31T05:12:02;12.80;80.60
4354;DHT22;11018;51.258;6.806;2023-08-31T05:14:28;12.80;80.20
4354;DHT22;11018;51.258;6.806;2023-08-31T05:16:54;12.80;80.70
4354;DHT22;11018;51.258;6.806;2023-08-31T05:19:20;12.90;79.80
4354;DHT22;11018;51.258;6.806;2023-08-31T05:21:45;12.90;77.90
4354;DHT22;11018;51.258;6.806;2023-08-31T05:24:11;13.00;76.50
4354;DHT22;11018;51.258;6.806;2023-08-31T05:26:37;13.10;74.90
4354;DHT22;11018;51.258;6.806;2023-08-31T05:29:03;13.10;74.10
4354;DHT22;11018;51.258;6.806;2023-08-31T05:31:31;13.10;74.40
4354;DHT22;11018;51.258;6.806;2023-08-31T05:33:57;13.10;76.60
4354;DHT22;11018;51.258;6.806;2023-08-31T05:36:22;13.10;75.70
4354;DHT22;11018;51.258;6.806;2023-08-31T05:38:48;13.10;75.10
4354;DHT22;11018;51.258;6.806;2023-08-31T05:41:13;13.10;78.60
4354;DHT22;11018;51.258;6.806;2023-08-31T05:43:39;13.10;74.70
4354;DHT22;11018;51.258;6.806;2023-08-31T05:46:08;13.20;74.90
4354;DHT22;11018;51.258;6.806;2023-08-31T05:48:35;13.00;75.70
4354;DHT22;11018;51.258;6.806;2023-08-31T05:51:01;13.00;76.20
4354;DHT22;11018;51.258;6.806;2023-08-31T05:53:31;12.90;78.30
4354;DHT22;11018;51.258;6.806;2023-08-31T05:55:58;12.90;78.70
4354;DHT22;11018;51.258;6.806;2023-08-31T05:58:31;13.00;78.30
4354;DHT22;11018;51.258;6.806;2023-08-31T06:00:57;13.00;77.50
4354;DHT22;11018;51.258;6.806;2023-08-31T06:03:23;13.10;76.90
4354;DHT22;11018;51.258;6.806;2023-08-31T06:05:48;13.20;75.90
4354;DHT22;11018;51.258;6.806;2023-08-31T06:08:14;13.20;75.80
4354;DHT22;11018;51.258;6.806;2023-08-31T06:10:39;13.30;75.30
4354;DHT22;11018;51.258;6.806;2023-08-31T06:13:05;13.30;74.00
4354;DHT22;11018;51.258;6.806;2023-08-31T06:15:31;13.30;73.70
4354;DHT22;11018;51.258;6.806;2023-08-31T06:17:56;13.30;73.90
4354;DHT22;11018;51.258;6.806;2023-08-31T06:20:22;13.30;73.00
4354;DHT22;11018;51.258;6.806;2023-08-31T06:22:49;13.50;71.00
4354;DHT22;11018;51.258;6.806;2023-08-31T06:25:14;13.50;71.40
4354;DHT22;11018;51.258;6.806;2023-08-31T06:27:42;13.50;70.50
4354;DHT22;11018;51.258;6.806;2023-08-31T06:30:11;13.60;70.80
4354;DHT22;11018;51.258;6.806;2023-08-31T06:32:45;13.70;68.50
4354;DHT22;11018;51.258;6.806;2023-08-31T06:35:11;13.70;70.00
4354;DHT22;11018;51.258;6.806;2023-08-31T06:37:46;13.70;69.80
4354;DHT22;11018;51.258;6.806;2023-08-31T06:40:12;13.70;68.30
4354;DHT22;11018;51.258;6.806;2023-08-31T06:42:37;13.90;67.60
4354;DHT22;11018;51.258;6.806;2023-08-31T06:45:04;14.00;65.50
4354;DHT22;11018;51.258;6.806;2023-08-31T06:47:30;14.10;63.70
4354;DHT22;11018;51.258;6.806;2023-08-31T06:49:56;14.10;65.50
4354;DHT22;11018;51.258;6.806;2023-08-31T06:52:23;14.20;64.20
4354;DHT22;11018;51.258;6.806;2023-08-31T06:54:49;14.20;64.90
4354;DHT22;11018;51.258;6.806;2023-08-31T06:57:15;14.30;62.30
4354;DHT22;11018;51.258;6.806;2023-08-31T06:59:40;14.30;62.00
4354;DHT22;11018;51.258;6.806;2023-08-31T07:02:06;14.40;62.90
4354;DHT22;11018;51.258;6.806;2023-08-31T07:04:32;14.50;60.00
4354;DHT22;11018;51.258;6.806;2023-08-31T07:06:57;14.50;59.60
4354;DHT22;11018;51.258;6.806;2023-08-31T07:09:23;14.60;59.50
4354;DHT22;11018;51.258;6.806;2023-08-31T07:11:48;14.70;58.80
4354;DHT22;11018;51.258;6.806;2023-08-31T07:14:14;14.80;58.50
4354;DHT22;11018;51.258;6.806;2023-08-31T07:16:40;14.80;57.80
4354;DHT22;11018;51.258;6.806;2023-08-31T07:19:05;14.80;56.30
4354;DHT22;11018;51.258;6.806;2023-08-31T07:21:31;14.90;56.40
4354;DHT22;11018;51.258;6.806;2023-08-31T07:23:57;15.00;56.10
4354;DHT22;11018;51.258;6.806;2023-08-31T07:26:22;15.00;55.80
4354;DHT22;11018;51.258;6.806;2023-08-31T07:28:48;15.10;55.10
4354;DHT22;11018;51.258;6.806;2023-08-31T07:31:14;15.20;54.90
4354;DHT22;11018;51.258;6.806;2023-08-31T07:33:40;15.30;53.50
4354;DHT22;11018;51.258;6.806;2023-08-31T07:36:06;15.30;54.00
4354;DHT22;11018;51.258;6.806;2023-08-31T07:38:32;15.40;52.70
4354;DHT22;11018;51.258;6.806;2023-08-31T07:40:59;15.50;52.20
4354;DHT22;11018;51.258;6.806;2023-08-31T07:43:25;15.60;52.70
4354;DHT22;11018;51.258;6.806;2023-08-31T07:45:51;15.70;51.30
4354;DHT22;11018;51.258;6.806;2023-08-31T07:48:17;15.80;50.70
4354;DHT22;11018;51.258;6.806;2023-08-31T07:50:43;15.80;50.00
4354;DHT22;11018;51.258;6.806;2023-08-31T07:53:09;15.90;49.40
4354;DHT22;11018;51.258;6.806;2023-08-31T07:55:34;16.00;49.30
4354;DHT22;11018;51.258;6.806;2023-08-31T07:58:03;16.00;48.30
4354;DHT22;11018;51.258;6.806;2023-08-31T08:00:28;16.10;48.40
4354;DHT22;11018;51.258;6.806;2023-08-31T08:02:54;16.10;49.50
4354;DHT22;11018;51.258;6.806;2023-08-31T08:05:20;16.30;48.30
4354;DHT22;11018;51.258;6.806;2023-08-31T08:07:45;16.40;47.00
4354;DHT22;11018;51.258;6.806;2023-08-31T08:10:12;16.50;45.70
4354;DHT22;11018;51.258;6.806;2023-08-31T08:12:38;16.60;45.20
4354;DHT22;11018;51.258;6.806;2023-08-31T08:15:06;16.60;45.60
4354;DHT22;11018;51.258;6.806;2023-08-31T08:17:34;16.70;45.00
4354;DHT22;11018;51.258;6.806;2023-08-31T08:20:00;16.90;44.20
4354;DHT22;11018;51.258;6.806;2023-08-31T08:22:26;17.00;43.90
4354;DHT22;11018;51.258;6.806;2023-08-31T08:24:51;17.10;43.80
4354;DHT22;11018;51.258;6.806;2023-08-31T08:27:17;17.10;43.50
4354;DHT22;11018;51.258;6.806;2023-08-31T08:29:46;17.10;42.30
4354;DHT22;11018;51.258;6.806;2023-08-31T08:32:12;17.20;42.50
4354;DHT22;11018;51.258;6.806;2023-08-31T08:34:38;17.20;42.40
4354;DHT22;11018;51.258;6.806;2023-08-31T08:37:04;17.40;41.50
4354;DHT22;11018;51.258;6.806;2023-08-31T08:39:30;17.40;40.50
4354;DHT22;11018;51.258;6.806;2023-08-31T08:41:58;17.40;40.70
4354;DHT22;11018;51.258;6.806;2023-08-31T08:44:25;17.70;40.30
4354;DHT22;11018;51.258;6.806;2023-08-31T08:46:51;17.60;39.20
4354;DHT22;11018;51.258;6.806;2023-08-31T08:49:18;17.60;38.00
4354;DHT22;11018;51.258;6.806;2023-08-31T08:51:45;17.60;39.40
4354;DHT22;11018;51.258;6.806;2023-08-31T08:54:13;17.70;39.40
4354;DHT22;11018;51.258;6.806;2023-08-31T08:56:38;17.90;38.20
4354;DHT22;11018;51.258;6.806;2023-08-31T08:59:05;18.20;37.90
4354;DHT22;11018;51.258;6.806;2023-08-31T09:01:32;18.30;37.30
4354;DHT22;11018;51.258;6.806;2023-08-31T09:03:58;18.40;36.80
4354;DHT22;11018;51.258;6.806;2023-08-31T09:06:24;18.40;35.30
4354;DHT22;11018;51.258;6.806;2023-08-31T09:08:55;18.50;35.30
4354;DHT22;11018;51.258;6.806;2023-08-31T09:11:22;18.60;35.40
4354;DHT22;11018;51.258;6.806;2023-08-31T09:13:48;18.60;33.80
4354;DHT22;11018;51.258;6.806;2023-08-31T09:18:50;18.60;33.10
4354;DHT22;11018;51.258;6.806;2023-08-31T09:21:16;18.60;33.30
4354;DHT22;11018;51.258;6.806;2023-08-31T09:23:41;18.60;34.00
4354;DHT22;11018;51.258;6.806;2023-08-31T09:26:07;18.70;33.10
4354;DHT22;11018;51.258;6.806;2023-08-31T09:28:33;18.80;31.30
4354;DHT22;11018;51.258;6.806;2023-08-31T09:31:06;18.80;30.60
4354;DHT22;11018;51.258;6.806;2023-08-31T09:33:34;18.90;31.90
4354;DHT22;11018;51.258;6.806;2023-08-31T09:36:01;19.20;31.60
4354;DHT22;11018;51.258;6.806;2023-08-31T09:38:29;19.60;30.00
4354;DHT22;11018;51.258;6.806;2023-08-31T09:41:04;19.90;28.10
4354;DHT22;11018;51.258;6.806;2023-08-31T09:43:31;20.10;26.40
4354;DHT22;11018;51.258;6.806;2023-08-31T09:45:56;20.00;27.10
4354;DHT22;11018;51.258;6.806;2023-08-31T09:48:23;20.20;27.20
4354;DHT22;11018;51.258;6.806;2023-08-31T09:50:49;20.30;26.70
4354;DHT22;11018;51.258;6.806;2023-08-31T09:53:16;20.30;26.50
4354;DHT22;11018;51.258;6.806;2023-08-31T09:55:43;20.10;26.80
4354;DHT22;11018;51.258;6.806;2023-08-31T09:58:09;19.90;25.90
4354;DHT22;11018;51.258;6.806;2023-08-31T10:00:36;19.90;27.20
4354;DHT22;11018;51.258;6.806;2023-08-31T10:03:04;19.80;27.50
4354;DHT22;11018;51.258;6.806;2023-08-31T10:05:31;20.10;27.00
4354;DHT22;11018;51.258;6.806;2023-08-31T10:07:58;20.30;24.40
4354;DHT22;11018;51.258;6.806;2023-08-31T10:10:24;20.40;24.00
4354;DHT22;11018;51.258;6.806;2023-08-31T10:12:50;20.80;24.20
4354;DHT22;11018;51.258;6.806;2023-08-31T10:15:18;21.10;22.80
4354;DHT22;11018;51.258;6.806;2023-08-31T10:17:44;21.20;21.70
4354;DHT22;11018;51.258;6.806;2023-08-31T10:20:11;21.30;21.80
4354;DHT22;11018;51.258;6.806;2023-08-31T10:22:38;21.40;22.50
4354;DHT22;11018;51.258;6.806;2023-08-31T10:25:05;21.30;23.00
4354;DHT22;11018;51.258;6.806;2023-08-31T10:27:43;21.30;22.30
4354;DHT22;11018;51.258;6.806;2023-08-31T10:30:15;21.10;22.40
4354;DHT22;11018;51.258;6.806;2023-08-31T10:32:41;21.10;22.70
4354;DHT22;11018;51.258;6.806;2023-08-31T10:35:10;20.90;23.50
4354;DHT22;11018;51.258;6.806;2023-08-31T10:37:35;20.80;24.40
4354;DHT22;11018;51.258;6.806;2023-08-31T10:40:11;20.60;24.50
4354;DHT22;11018;51.258;6.806;2023-08-31T10:42:47;20.20;25.60
4354;DHT22;11018;51.258;6.806;2023-08-31T10:45:20;20.00;25.90
4354;DHT22;11018;51.258;6.806;2023-08-31T10:47:46;19.80;25.80
4354;DHT22;11018;51.258;6.806;2023-08-31T10:50:21;19.80;26.30
4354;DHT22;11018;51.258;6.806;2023-08-31T10:52:47;19.80;25.10
4354;DHT22;11018;51.258;6.806;2023-08-31T10:55:13;20.00;25.70
4354;DHT22;11018;51.258;6.806;2023-08-31T10:57:40;19.90;25.20
4354;DHT22;11018;51.258;6.806;2023-08-31T11:00:07;19.90;25.40
4354;DHT22;11018;51.258;6.806;2023-08-31T11:02:43;20.20;24.20
4354;DHT22;11018;51.258;6.806;2023-08-31T11:05:17;20.30;22.50
4354;DHT22;11018;51.258;6.806;2023-08-31T11:07:49;20.20;21.60
4354;DHT22;11018;51.258;6.806;2023-08-31T11:10:18;20.00;23.10
4354;DHT22;11018;51.258;6.806;2023-08-31T11:12:49;20.10;24.00
4354;DHT22;11018;51.258;6.806;2023-08-31T11:15:18;20.20;23.30
4354;DHT22;11018;51.258;6.806;2023-08-31T11:17:44;20.30;23.90
4354;DHT22;11018;51.258;6.806;2023-08-31T11:20:15;20.10;23.90
4354;DHT22;11018;51.258;6.806;2023-08-31T11:22:43;20.00;23.60
4354;DHT22;11018;51.258;6.806;2023-08-31T11:25:11;19.90;24.00
4354;DHT22;11018;51.258;6.806;2023-08-31T11:27:36;20.00;22.80
4354;DHT22;11018;51.258;6.806;2023-08-31T11:30:06;20.00;23.90
4354;DHT22;11018;51.258;6.806;2023-08-31T11:32:36;20.30;24.00
4354;DHT22;11018;51.258;6.806;2023-08-31T11:35:01;20.60;22.50
4354;DHT22;11018;51.258;6.806;2023-08-31T11:37:29;21.00;22.20
4354;DHT22;11018;51.258;6.806;2023-08-31T11:39:54;21.30;19.90
4354;DHT22;11018;51.258;6.806;2023-08-31T11:42:21;21.50;19.90
4354;DHT22;11018;51.258;6.806;2023-08-31T11:44:48;21.60;20.20
4354;DHT22;11018;51.258;6.806;2023-08-31T11:47:14;21.60;20.30
4354;DHT22;11018;51.258;6.806;2023-08-31T11:49:42;21.70;20.50
4354;DHT22;11018;51.258;6.806;2023-08-31T11:52:10;21.40;20.70
4354;DHT22;11018;51.258;6.806;2023-08-31T11:54:38;21.10;21.80
4354;DHT22;11018;51.258;6.806;2023-08-31T11:57:07;20.80;22.00
4354;DHT22;11018;51.258;6.806;2023-08-31T11:59:35;20.60;26.10
4354;DHT22;11018;51.258;6.806;2023-08-31T12:02:01;17.70;69.90
4354;DHT22;11018;51.258;6.806;2023-08-31T12:04:27;15.50;99.90
4354;DHT22;11018;51.258;6.806;2023-08-31T12:06:58;15.00;99.90
4354;DHT22;11018;51.258;6.806;2023-08-31T12:09:27;14.90;99.90
4354;DHT22;11018;51.258;6.806;2023-08-31T12:11:53;15.20;99.90
4354;DHT22;11018;51.258;6.806;2023-08-31T12:14:21;15.40;99.90
4354;DHT22;11018;51.258;6.806;2023-08-31T12:16:47;15.60;99.90
4354;DHT22;11018;51.258;6.806;2023-08-31T12:19:13;16.10;99.90
4354;DHT22;11018;51.258;6.806;2023-08-31T12:21:39;16.70;99.90
4354;DHT22;11018;51.258;6.806;2023-08-31T12:24:05;17.00;99.90
4354;DHT22;11018;51.258;6.806;2023-08-31T12:26:32;17.50;99.90
4354;DHT22;11018;51.258;6.806;2023-08-31T12:28:57;17.70;99.90
4354;DHT22;11018;51.258;6.806;2023-08-31T12:31:24;17.90;99.90
4354;DHT22;11018;51.258;6.806;2023-08-31T12:33:49;18.10;99.90
4354;DHT22;11018;51.258;6.806;2023-08-31T12:36:15;17.60;99.90
4354;DHT22;11018;51.258;6.806;2023-08-31T12:38:41;17.40;99.90
4354;DHT22;11018;51.258;6.806;2023-08-31T12:41:07;17.50;99.90
4354;DHT22;11018;51.258;6.806;2023-08-31T12:43:33;17.40;99.90
4354;DHT22;11018;51.258;6.806;2023-08-31T12:45:59;17.50;99.90
4354;DHT22;11018;51.258;6.806;2023-08-31T12:48:24;17.40;99.90
4354;DHT22;11018;51.258;6.806;2023-08-31T12:50:50;17.70;99.90
4354;DHT22;11018;51.258;6.806;2023-08-31T12:53:16;17.40;99.90
4354;DHT22;11018;51.258;6.806;2023-08-31T12:55:41;17.10;99.90
4354;DHT22;11018;51.258;6.806;2023-08-31T12:58:07;17.10;99.90
4354;DHT22;11018;51.258;6.806;2023-08-31T13:00:33;17.00;99.90
4354;DHT22;11018;51.258;6.806;2023-08-31T13:02:59;16.90;99.90
4354;DHT22;11018;51.258;6.806;2023-08-31T13:05:26;16.90;99.90
4354;DHT22;11018;51.258;6.806;2023-08-31T13:07:54;16.80;99.90
4354;DHT22;11018;51.258;6.806;2023-08-31T13:10:20;16.80;99.90
4354;DHT22;11018;51.258;6.806;2023-08-31T13:12:45;16.40;99.90
4354;DHT22;11018;51.258;6.806;2023-08-31T13:15:11;16.50;99.90
4354;DHT22;11018;51.258;6.806;2023-08-31T13:17:37;16.70;99.90
4354;DHT22;11018;51.258;6.806;2023-08-31T13:20:02;16.90;99.90
4354;DHT22;11018;51.258;6.806;2023-08-31T13:22:29;17.20;99.90
4354;DHT22;11018;51.258;6.806;2023-08-31T13:24:56;17.10;99.90
4354;DHT22;11018;51.258;6.806;2023-08-31T13:27:22;17.30;99.90
4354;DHT22;11018;51.258;6.806;2023-08-31T13:29:47;17.90;99.90
4354;DHT22;11018;51.258;6.806;2023-08-31T13:32:13;17.60;99.90
4354;DHT22;11018;51.258;6.806;2023-08-31T13:34:39;18.00;99.90
4354;DHT22;11018;51.258;6.806;2023-08-31T13:37:05;18.50;99.90
4354;DHT22;11018;51.258;6.806;2023-08-31T13:39:31;19.10;87.20
4354;DHT22;11018;51.258;6.806;2023-08-31T13:41:57;19.60;62.10
4354;DHT22;11018;51.258;6.806;2023-08-31T13:44:22;19.30;48.30
4354;DHT22;11018;51.258;6.806;2023-08-31T13:46:48;19.60;63.80
4354;DHT22;11018;51.258;6.806;2023-08-31T13:49:14;19.80;47.40
4354;DHT22;11018;51.258;6.806;2023-08-31T13:51:41;19.50;38.40
4354;DHT22;11018;51.258;6.806;2023-08-31T13:54:07;19.50;41.50
4354;DHT22;11018;51.258;6.806;2023-08-31T13:56:35;19.80;45.80
4354;DHT22;11018;51.258;6.806;2023-08-31T13:59:01;20.40;36.60
4354;DHT22;11018;51.258;6.806;2023-08-31T14:01:26;20.60;40.70
4354;DHT22;11018;51.258;6.806;2023-08-31T14:03:52;21.10;35.50
4354;DHT22;11018;51.258;6.806;2023-08-31T14:06:18;21.40;29.30
4354;DHT22;11018;51.258;6.806;2023-08-31T14:08:43;21.50;28.70
4354;DHT22;11018;51.258;6.806;2023-08-31T14:11:09;21.20;28.40
4354;DHT22;11018;51.258;6.806;2023-08-31T14:13:35;21.20;25.90
4354;DHT22;11018;51.258;6.806;2023-08-31T14:16:00;21.10;26.00
4354;DHT22;11018;51.258;6.806;2023-08-31T14:18:27;21.00;27.50
4354;DHT22;11018;51.258;6.806;2023-08-31T14:20:54;21.10;26.80
4354;DHT22;11018;51.258;6.806;2023-08-31T14:23:20;21.00;23.70
4354;DHT22;11018;51.258;6.806;2023-08-31T14:25:46;21.00;25.30
4354;DHT22;11018;51.258;6.806;2023-08-31T14:28:11;20.80;27.40
4354;DHT22;11018;51.258;6.806;2023-08-31T14:30:37;20.70;28.00
4354;DHT22;11018;51.258;6.806;2023-08-31T14:33:04;20.70;27.50
4354;DHT22;11018;51.258;6.806;2023-08-31T14:35:29;20.70;29.30
4354;DHT22;11018;51.258;6.806;2023-08-31T14:37:56;20.70;29.60
4354;DHT22;11018;51.258;6.806;2023-08-31T14:40:21;20.60;32.30
4354;DHT22;11018;51.258;6.806;2023-08-31T14:42:47;20.70;30.40
4354;DHT22;11018;51.258;6.806;2023-08-31T14:45:12;20.50;26.30
4354;DHT22;11018;51.258;6.806;2023-08-31T14:47:38;20.40;23.30
4354;DHT22;11018;51.258;6.806;2023-08-31T14:50:04;20.30;24.50
4354;DHT22;11018;51.258;6.806;2023-08-31T14:52:30;20.20;23.50
4354;DHT22;11018;51.258;6.806;2023-08-31T14:54:55;20.00;23.80
4354;DHT22;11018;51.258;6.806;2023-08-31T14:57:21;19.90;24.60
4354;DHT22;11018;51.258;6.806;2023-08-31T14:59:47;19.80;25.60
4354;DHT22;11018;51.258;6.806;2023-08-31T15:02:12;19.90;27.30
4354;DHT22;11018;51.258;6.806;2023-08-31T15:04:39;19.30;33.00
4354;DHT22;11018;51.258;6.806;2023-08-31T15:07:05;18.70;36.20
4354;DHT22;11018;51.258;6.806;2023-08-31T15:09:31;18.40;38.30
4354;DHT22;11018;51.258;6.806;2023-08-31T15:11:56;18.20;40.00
4354;DHT22;11018;51.258;6.806;2023-08-31T15:14:22;18.00;41.20
4354;DHT22;11018;51.258;6.806;2023-08-31T15:16:47;17.90;41.50
4354;DHT22;11018;51.258;6.806;2023-08-31T15:19:13;17.90;42.70
4354;DHT22;11018;51.258;6.806;2023-08-31T15:21:38;18.00;42.50
4354;DHT22;11018;51.258;6.806;2023-08-31T15:24:04;18.00;42.30
4354;DHT22;11018;51.258;6.806;2023-08-31T15:26:30;18.00;41.00
4354;DHT22;11018;51.258;6.806;2023-08-31T15:28:55;18.10;40.20
4354;DHT22;11018;51.258;6.806;2023-08-31T15:31:21;18.20;40.00
4354;DHT22;11018;51.258;6.806;2023-08-31T15:33:47;18.50;39.30
4354;DHT22;11018;51.258;6.806;2023-08-31T15:36:13;18.80;37.70
4354;DHT22;11018;51.258;6.806;2023-08-31T15:38:39;18.80;36.70
4354;DHT22;11018;51.258;6.806;2023-08-31T15:41:06;18.70;36.80
4354;DHT22;11018;51.258;6.806;2023-08-31T15:43:33;19.10;37.20
4354;DHT22;11018;51.258;6.806;2023-08-31T15:46:00;19.20;35.60
4354;DHT22;11018;51.258;6.806;2023-08-31T15:48:27;19.40;35.20
4354;DHT22;11018;51.258;6.806;2023-08-31T15:50:55;19.40;34.70
4354;DHT22;11018;51.258;6.806;2023-08-31T15:53:20;19.20;34.70